GCLP

Gran Canaria Airport

Gran Canaria Island, Spain
METAR GCLP 220630Z VRB02KT 9999 SCT035 BKN050 17/12 Q1015 NOSIG
Observed Flight Rules
Apr-22 @ 06:30 UTC (28 minutes ago) Visual Flight Rules
Wind Visibility Clouds
Variable at 2 knots 10,000+ meters
  • Scattered at 3,500' AGL
  • Broken at 5,000' AGL
Temperatures Readings
Current 17°C / 63°F
Dewpoint 12°C / 54°F
Humidity 73%
Altimeter 29.97" Hg
Pressure 1015 hPa
Elevation 25
METAR GCLP 220630Z VRB02KT 9999 SCT035 BKN050 17/12 Q1015 NOSIG
Observed Flight Rules
Apr-22 @ 06:30 UTC
(28 minutes ago)
VFR
Wind Visibility
Variable at 2 knots 10,000+ meters
Clouds
  • Scattered at 3,500' AGL
  • Broken at 5,000' AGL
Temperature Dewpoint
17°C / 63°F 12°C / 54°F
Humidity Altimeter Pressure
73% 29.97" Hg 1015 hPa